createdAt,value
2022-12-27T00:00:10.598Z,100451.41
2022-12-27T00:03:04.943Z,100441.20
2022-12-27T00:05:32.851Z,100447.63
2022-12-27T00:08:00.673Z,100452.01
2022-12-27T00:10:28.625Z,100465.16
2022-12-27T00:12:56.581Z,100471.94
2022-12-27T00:15:24.431Z,100475.58
2022-12-27T00:17:52.427Z,100484.92
2022-12-27T00:20:20.460Z,100493.38
2022-12-27T00:22:48.358Z,100508.28
2022-12-27T00:25:16.345Z,100513.08
2022-12-27T00:27:44.279Z,100513.02
2022-12-27T00:30:12.798Z,100529.92
2022-12-27T00:32:40.668Z,100527.23
2022-12-27T00:35:09.180Z,100531.23
2022-12-27T00:37:37.015Z,100536.06
2022-12-27T00:40:05.397Z,100532.14
2022-12-27T00:42:33.334Z,100533.27
2022-12-27T00:45:01.179Z,100532.62
2022-12-27T00:47:29.131Z,100539.55
2022-12-27T00:49:57.001Z,100544.85
2022-12-27T00:52:24.886Z,100552.97
2022-12-27T00:54:52.774Z,100560.80
2022-12-27T00:57:21.882Z,100569.40
2022-12-27T00:59:49.844Z,100570.17
2022-12-27T01:02:17.746Z,100572.58
2022-12-27T01:04:45.689Z,100573.56
2022-12-27T01:07:13.827Z,100574.05
2022-12-27T01:09:41.890Z,100576.84
2022-12-27T01:12:09.803Z,100580.34
2022-12-27T01:14:37.698Z,100581.77
2022-12-27T01:17:05.657Z,100582.70
2022-12-27T01:19:36.565Z,100582.11
2022-12-27T01:22:06.271Z,100582.25
2022-12-27T01:24:34.660Z,100586.00
2022-12-27T01:27:02.525Z,100580.77
2022-12-27T01:29:30.425Z,100578.42
2022-12-27T01:31:58.469Z,100577.02
2022-12-27T01:34:26.932Z,100573.62
2022-12-27T01:36:54.839Z,100578.83
2022-12-27T01:39:23.047Z,100581.43
2022-12-27T01:42:09.375Z,100585.17
2022-12-27T01:44:43.770Z,100584.52
2022-12-27T01:47:45.050Z,100597.11
2022-12-27T01:50:38.985Z,100603.85
2022-12-27T01:53:13.339Z,100603.10
2022-12-27T01:55:58.502Z,100603.80
2022-12-27T01:58:47.838Z,100608.69
2022-12-27T02:01:27.033Z,100611.89
2022-12-27T02:04:05.138Z,100609.20
2022-12-27T02:06:36.072Z,100614.13
2022-12-27T02:09:34.257Z,100615.49
2022-12-27T02:12:06.133Z,100609.02
2022-12-27T02:14:47.369Z,100612.31
2022-12-27T02:17:20.694Z,100619.69
2022-12-27T02:20:22.785Z,100614.70
2022-12-27T02:23:41.774Z,100614.70
2022-12-27T02:26:18.645Z,100611.16
2022-12-27T02:29:09.858Z,100617.08
2022-12-27T02:32:11.599Z,100618.59
2022-12-27T02:35:44.085Z,100622.31
2022-12-27T02:38:19.217Z,100629.03
2022-12-27T02:41:08.571Z,100634.48
2022-12-27T02:43:55.084Z,100638.52
2022-12-27T02:46:45.145Z,100645.63
2022-12-27T02:49:54.492Z,100650.33
2022-12-27T02:53:06.876Z,100662.13
2022-12-27T02:56:45.133Z,100664.21
2022-12-27T02:59:59.929Z,100667.19
2022-12-27T03:03:18.493Z,100670.37
2022-12-27T03:06:32.488Z,100677.68
2022-12-27T03:09:44.359Z,100675.63
2022-12-27T03:13:06.161Z,100679.89
2022-12-27T03:15:55.755Z,100683.02
2022-12-27T03:19:03.281Z,100685.84
2022-12-27T03:21:56.072Z,100688.48
2022-12-27T03:24:51.430Z,100694.38
2022-12-27T03:27:31.368Z,100696.37
2022-12-27T03:30:20.979Z,100708.09
2022-12-27T03:33:14.914Z,100705.73
2022-12-27T03:36:18.127Z,100706.10
2022-12-27T03:39:30.452Z,100712.98
2022-12-27T03:42:42.761Z,100720.04
2022-12-27T03:45:11.563Z,100717.17
2022-12-27T03:47:59.274Z,100721.60
2022-12-27T03:50:35.266Z,100724.65
2022-12-27T03:53:31.967Z,100720.72
2022-12-27T03:56:00.391Z,100719.77
2022-12-27T03:58:28.346Z,100721.41
2022-12-27T04:00:56.227Z,100721.28
2022-12-27T04:03:24.206Z,100725.72
2022-12-27T04:05:52.164Z,100729.04
2022-12-27T04:08:38.704Z,100733.15
2022-12-27T04:11:25.637Z,100741.56
2022-12-27T04:14:12.389Z,100746.33
2022-12-27T04:16:58.843Z,100750.55
2022-12-27T04:19:45.601Z,100754.98
2022-12-27T04:22:32.135Z,100759.19
2022-12-27T04:25:18.805Z,100761.25
2022-12-27T04:28:05.256Z,100759.54
2022-12-27T04:30:52.786Z,100760.38
2022-12-27T04:33:39.362Z,100760.39
2022-12-27T04:36:08.109Z,100756.95
2022-12-27T04:38:35.991Z,100760.19
2022-12-27T04:41:23.077Z,100767.70
2022-12-27T04:44:09.791Z,100767.77
2022-12-27T04:46:56.351Z,100769.20
2022-12-27T04:49:45.787Z,100772.23
2022-12-27T04:52:36.041Z,100786.52
2022-12-27T04:55:28.088Z,100789.23
2022-12-27T04:57:58.048Z,100794.59
2022-12-27T05:00:49.082Z,100793.84
2022-12-27T05:03:21.391Z,100795.14
2022-12-27T05:05:51.787Z,100796.30
2022-12-27T05:08:39.751Z,100800.69
2022-12-27T05:11:26.942Z,100811.45
2022-12-27T05:14:01.035Z,100810.27
2022-12-27T05:16:34.406Z,100814.19
2022-12-27T05:19:03.234Z,100814.16
2022-12-27T05:21:31.167Z,100819.25
2022-12-27T05:24:17.855Z,100827.77
2022-12-27T05:26:45.763Z,100826.61
2022-12-27T05:29:13.611Z,100824.65
2022-12-27T05:31:41.618Z,100824.35
2022-12-27T05:34:09.606Z,100828.45
2022-12-27T05:36:37.464Z,100830.34
2022-12-27T05:39:05.444Z,100834.84
2022-12-27T05:41:33.374Z,100840.15
2022-12-27T05:44:06.924Z,100845.13
2022-12-27T05:46:36.332Z,100843.36
2022-12-27T05:49:04.275Z,100852.53
2022-12-27T05:51:32.213Z,100849.66
2022-12-27T05:54:00.106Z,100860.14
2022-12-27T05:56:28.002Z,100855.39
2022-12-27T05:58:55.912Z,100853.61
2022-12-27T06:01:23.854Z,100850.68
2022-12-27T06:03:51.736Z,100859.40
2022-12-27T06:06:20.030Z,100862.73
2022-12-27T06:08:48.030Z,100872.40
2022-12-27T06:11:19.368Z,100876.48
2022-12-27T06:13:53.582Z,100883.06
2022-12-27T06:16:22.515Z,100882.79
2022-12-27T06:18:50.549Z,100884.30
2022-12-27T06:21:21.378Z,100884.13
2022-12-27T06:23:49.707Z,100886.17
2022-12-27T06:26:25.175Z,100888.02
2022-12-27T06:28:55.881Z,100891.14
2022-12-27T06:31:25.692Z,100900.45
2022-12-27T06:33:54.140Z,100895.00
2022-12-27T06:36:32.539Z,100890.65
2022-12-27T06:39:00.903Z,100899.11
2022-12-27T06:41:29.001Z,100903.64
2022-12-27T06:43:58.439Z,100908.98
2022-12-27T06:46:26.443Z,100914.57
2022-12-27T06:48:54.379Z,100919.56
2022-12-27T06:51:22.344Z,100921.77
2022-12-27T06:53:50.380Z,100921.66
2022-12-27T06:56:22.082Z,100927.81
2022-12-27T06:58:51.709Z,100933.15
2022-12-27T07:01:23.532Z,100935.11
2022-12-27T07:03:59.018Z,100939.61
2022-12-27T07:06:30.413Z,100945.38
2022-12-27T07:09:01.304Z,100949.89
2022-12-27T07:11:33.450Z,100957.48
2022-12-27T07:14:02.308Z,100956.91
2022-12-27T07:16:31.447Z,100960.11
2022-12-27T07:19:00.012Z,100964.84
2022-12-27T07:21:29.327Z,100969.84
2022-12-27T07:23:58.217Z,100973.96
2022-12-27T07:26:30.402Z,100986.13
2022-12-27T07:29:02.384Z,100979.14
2022-12-27T07:31:33.201Z,100981.63
2022-12-27T07:34:03.632Z,100990.28
2022-12-27T07:36:38.893Z,100997.35
2022-12-27T07:39:08.445Z,100996.14
2022-12-27T07:41:37.240Z,101002.95
2022-12-27T07:44:06.140Z,101002.12
2022-12-27T07:46:34.378Z,101006.02
2022-12-27T07:49:02.362Z,101000.66
2022-12-27T07:51:30.482Z,101004.69
2022-12-27T07:53:58.507Z,101000.17
2022-12-27T07:56:29.103Z,101012.64
2022-12-27T07:58:59.916Z,101013.39
2022-12-27T08:01:55.247Z,101011.92
2022-12-27T08:04:23.970Z,101020.02
2022-12-27T08:07:12.735Z,101019.84
2022-12-27T08:09:43.642Z,101026.55
2022-12-27T08:12:13.454Z,101028.54
2022-12-27T08:14:42.129Z,101025.80
2022-12-27T08:17:21.039Z,101028.58
2022-12-27T08:19:51.656Z,101034.71
2022-12-27T08:22:20.239Z,101038.43
2022-12-27T08:24:48.768Z,101039.39
2022-12-27T08:27:22.541Z,101037.20
2022-12-27T08:29:50.498Z,101035.55
2022-12-27T08:32:18.489Z,101038.67
2022-12-27T08:34:46.460Z,101035.54
2022-12-27T08:37:15.771Z,101033.95
2022-12-27T08:39:43.686Z,101040.98
2022-12-27T08:42:13.194Z,101048.11
2022-12-27T08:44:41.076Z,101045.52
2022-12-27T08:47:08.939Z,101038.39
2022-12-27T08:49:36.905Z,101038.63
2022-12-27T08:52:05.613Z,101044.57
2022-12-27T08:54:33.518Z,101044.61
2022-12-27T08:57:01.401Z,101051.86
2022-12-27T08:59:29.328Z,101054.66
2022-12-27T09:01:57.341Z,101048.80
2022-12-27T09:04:25.310Z,101053.98
2022-12-27T09:06:53.187Z,101058.84
2022-12-27T09:09:21.128Z,101061.45
2022-12-27T09:11:49.079Z,101065.52
2022-12-27T09:14:17.212Z,101071.73
2022-12-27T09:16:45.183Z,101071.53
2022-12-27T09:19:13.151Z,101074.86
2022-12-27T09:21:43.969Z,101074.55
2022-12-27T09:24:13.479Z,101076.48
2022-12-27T09:26:41.609Z,101078.66
2022-12-27T09:29:10.603Z,101074.91
2022-12-27T09:31:38.474Z,101078.29
2022-12-27T09:34:06.335Z,101080.33
2022-12-27T09:36:34.323Z,101085.00
2022-12-27T09:39:02.272Z,101084.42
2022-12-27T09:45:26.111Z,101087.77
2022-12-27T09:48:01.269Z,101101.20
2022-12-27T09:50:44.189Z,101095.73
2022-12-27T09:53:39.350Z,101091.09
2022-12-27T09:56:12.446Z,101091.00
2022-12-27T09:58:54.951Z,101088.29
2022-12-27T10:01:40.633Z,101088.55
2022-12-27T10:04:13.230Z,101085.55
2022-12-27T10:06:50.285Z,101082.36
2022-12-27T10:09:33.474Z,101075.92
2022-12-27T10:12:32.052Z,101074.43
2022-12-27T10:15:31.706Z,101069.04
2022-12-27T10:18:32.609Z,101061.11
2022-12-27T10:21:28.086Z,101058.16
2022-12-27T10:24:13.498Z,101065.49
2022-12-27T10:26:41.404Z,101069.36
2022-12-27T10:29:26.336Z,101066.41
2022-12-27T10:31:54.277Z,101062.64
2022-12-27T10:34:24.387Z,101069.36
2022-12-27T10:36:53.057Z,101065.27
2022-12-27T10:39:27.064Z,101065.52
2022-12-27T10:42:38.500Z,101064.11
2022-12-27T10:45:36.879Z,101059.81
2022-12-27T10:48:23.157Z,101063.42
2022-12-27T10:51:06.058Z,101062.36
2022-12-27T10:53:46.331Z,101068.66
2022-12-27T10:56:31.880Z,101061.48
2022-12-27T10:59:22.584Z,101064.80
2022-12-27T11:01:59.754Z,101058.80
2022-12-27T11:04:30.392Z,101056.91
2022-12-27T11:07:04.229Z,101061.64
2022-12-27T11:09:50.140Z,101059.52
2022-12-27T11:12:29.120Z,101067.57
2022-12-27T11:15:20.416Z,101067.93
2022-12-27T11:17:59.895Z,101063.40
2022-12-27T11:20:38.649Z,101068.00
2022-12-27T11:23:09.661Z,101065.33
2022-12-27T11:25:52.790Z,101063.10
2022-12-27T11:28:23.421Z,101066.05
2022-12-27T11:31:00.695Z,101065.02
2022-12-27T11:33:41.028Z,101066.45
2022-12-27T11:36:11.934Z,101066.96
2022-12-27T11:38:44.469Z,101068.44
2022-12-27T11:41:49.792Z,101068.13
2022-12-27T11:44:50.912Z,101080.47
2022-12-27T11:47:38.597Z,101079.32
2022-12-27T11:50:26.776Z,101078.64
2022-12-27T11:53:12.590Z,101078.06
2022-12-27T11:56:16.782Z,101072.72
2022-12-27T11:59:18.971Z,101075.78
2022-12-27T12:02:26.312Z,101081.80
2022-12-27T12:05:29.827Z,101087.84
2022-12-27T12:08:17.489Z,101086.36
2022-12-27T12:11:33.361Z,101086.24
2022-12-27T12:14:45.845Z,101086.91
2022-12-27T12:18:00.343Z,101087.23
2022-12-27T12:21:26.289Z,101090.27
2022-12-27T12:24:29.404Z,101093.42
2022-12-27T12:27:56.749Z,101089.86
2022-12-27T12:31:30.090Z,101089.46
2022-12-27T12:34:19.634Z,101092.25
2022-12-27T12:37:34.503Z,101092.70
2022-12-27T12:40:40.960Z,101098.23
2022-12-27T12:43:56.902Z,101107.39
2022-12-27T12:47:11.402Z,101112.92
2022-12-27T12:51:04.113Z,101111.96
2022-12-27T12:54:03.938Z,101106.83
2022-12-27T12:57:16.945Z,101104.64
2022-12-27T13:00:19.731Z,101102.08
2022-12-27T13:03:15.810Z,101105.02
2022-12-27T13:06:25.304Z,101119.60
2022-12-27T13:09:30.515Z,101117.25
2022-12-27T13:12:21.081Z,101119.17
2022-12-27T13:15:07.070Z,101113.13
2022-12-27T13:17:55.631Z,101107.53
2022-12-27T13:20:40.103Z,101102.30
2022-12-27T13:23:46.650Z,101107.63
2022-12-27T13:26:38.706Z,101112.18
2022-12-27T13:29:12.846Z,101126.88
2022-12-27T13:32:02.160Z,101128.45
2022-12-27T13:35:13.653Z,101136.27
2022-12-27T13:37:59.363Z,101137.21
2022-12-27T13:41:11.599Z,101144.23
2022-12-27T13:43:55.512Z,101142.01
2022-12-27T13:47:19.304Z,101148.52
2022-12-27T13:50:01.964Z,101154.29
2022-12-27T13:53:01.618Z,101160.92
2022-12-27T13:56:27.317Z,101163.12
2022-12-27T13:59:51.121Z,101163.21
2022-12-27T14:02:37.742Z,101164.34
2022-12-27T14:05:24.913Z,101166.10
2022-12-27T14:08:33.811Z,101162.21
2022-12-27T14:11:03.149Z,101170.18
2022-12-27T14:13:43.014Z,101177.33
2022-12-27T14:16:17.804Z,101175.39
2022-12-27T14:19:06.872Z,101180.85
2022-12-27T14:22:20.810Z,101178.56
2022-12-27T14:25:10.317Z,101178.81
2022-12-27T14:28:25.313Z,101181.02
2022-12-27T14:31:30.730Z,101184.35
2022-12-27T14:34:40.711Z,101181.79
2022-12-27T14:37:37.231Z,101186.57
2022-12-27T14:40:57.816Z,101185.61
2022-12-27T14:44:35.979Z,101183.60
2022-12-27T14:47:37.970Z,101196.22
2022-12-27T14:50:39.796Z,101196.64
2022-12-27T14:53:45.359Z,101203.64
2022-12-27T14:56:47.787Z,101211.00
2022-12-27T14:59:32.201Z,101211.52
2022-12-27T15:02:29.204Z,101213.67
2022-12-27T15:05:17.666Z,101212.79
2022-12-27T15:08:12.676Z,101213.73
2022-12-27T15:11:04.069Z,101211.50
2022-12-27T15:14:00.309Z,101207.12
2022-12-27T15:16:41.819Z,101206.33
2022-12-27T15:19:33.604Z,101204.50
2022-12-27T15:22:48.123Z,101207.48
2022-12-27T15:25:42.311Z,101213.60
2022-12-27T15:28:24.452Z,101222.17
2022-12-27T15:31:06.521Z,101220.85
2022-12-27T15:34:38.110Z,101220.01
2022-12-27T15:37:26.634Z,101217.06
2022-12-27T15:39:54.882Z,101224.75
2022-12-27T15:42:37.966Z,101228.29
2022-12-27T15:45:44.064Z,101231.45
2022-12-27T15:49:05.697Z,101238.63
2022-12-27T15:51:58.415Z,101242.34
2022-12-27T15:54:59.073Z,101239.25
2022-12-27T15:58:14.880Z,101244.20
2022-12-27T16:00:44.730Z,101239.92
2022-12-27T16:03:38.300Z,101239.81
2022-12-27T16:06:09.873Z,101250.48
2022-12-27T16:08:40.323Z,101255.77
2022-12-27T16:11:12.896Z,101261.13
2022-12-27T16:13:48.116Z,101262.42
2022-12-27T16:16:28.499Z,101265.86
2022-12-27T16:19:40.931Z,101265.70
2022-12-27T16:22:41.223Z,101272.27
2022-12-27T16:25:35.513Z,101271.55
2022-12-27T16:28:20.558Z,101274.58
2022-12-27T16:31:00.193Z,101269.70
2022-12-27T16:33:28.443Z,101271.21
2022-12-27T16:36:11.551Z,101264.83
2022-12-27T16:38:46.433Z,101268.39
2022-12-27T16:41:55.769Z,101264.35
2022-12-27T16:44:23.593Z,101263.38
2022-12-27T16:47:28.744Z,101268.80
2022-12-27T16:50:41.434Z,101272.92
2022-12-27T16:53:44.760Z,101266.34
2022-12-27T16:56:22.990Z,101274.61
2022-12-27T16:58:51.560Z,101275.82
2022-12-27T17:01:25.799Z,101276.74
2022-12-27T17:03:55.868Z,101286.68
2022-12-27T17:06:33.123Z,101291.30
2022-12-27T17:09:07.865Z,101292.41
2022-12-27T17:12:12.259Z,101293.54
2022-12-27T17:14:44.076Z,101301.45
2022-12-27T17:17:23.059Z,101301.69
2022-12-27T17:20:06.239Z,101305.34
2022-12-27T17:22:38.368Z,101305.21
2022-12-27T17:25:14.216Z,101305.72
2022-12-27T17:27:54.355Z,101311.91
2022-12-27T17:31:08.460Z,101307.78
2022-12-27T17:34:06.737Z,101304.62
2022-12-27T17:37:19.220Z,101305.19
2022-12-27T17:40:32.019Z,101305.59
2022-12-27T17:43:45.596Z,101310.26
2022-12-27T17:46:55.118Z,101313.55
2022-12-27T17:49:32.190Z,101318.09
2022-12-27T17:52:19.831Z,101318.16
2022-12-27T17:55:06.805Z,101319.52
2022-12-27T17:57:53.364Z,101324.95
2022-12-27T18:00:25.251Z,101325.92
2022-12-27T18:02:56.679Z,101328.66
2022-12-27T18:05:33.574Z,101329.53
2022-12-27T18:08:16.492Z,101328.06
2022-12-27T18:10:44.448Z,101328.48
2022-12-27T18:13:19.727Z,101335.38
2022-12-27T18:15:50.431Z,101339.13
2022-12-27T18:18:30.438Z,101337.55
2022-12-27T18:21:03.817Z,101338.41
2022-12-27T18:23:43.168Z,101338.94
2022-12-27T18:26:15.800Z,101335.33
2022-12-27T18:28:44.027Z,101335.05
2022-12-27T18:31:22.683Z,101339.19
2022-12-27T18:34:07.108Z,101340.33
2022-12-27T18:36:50.420Z,101341.23
2022-12-27T18:39:48.626Z,101341.39
2022-12-27T18:42:32.401Z,101339.11
2022-12-27T18:45:08.118Z,101342.10
2022-12-27T18:47:45.014Z,101346.21
2022-12-27T18:50:33.446Z,101344.34
2022-12-27T18:53:05.816Z,101346.40
2022-12-27T18:55:34.592Z,101347.10
2022-12-27T18:58:07.548Z,101348.34
2022-12-27T19:00:50.571Z,101347.36
2022-12-27T19:03:20.966Z,101345.66
2022-12-27T19:06:00.961Z,101351.92
2022-12-27T19:08:46.437Z,101359.02
2022-12-27T19:11:41.860Z,101358.52
2022-12-27T19:14:14.165Z,101352.94
2022-12-27T19:16:51.106Z,101355.56
2022-12-27T19:19:29.708Z,101360.10
2022-12-27T19:21:58.759Z,101361.87
2022-12-27T19:24:27.315Z,101355.55
2022-12-27T19:27:00.681Z,101361.10
2022-12-27T19:29:35.394Z,101363.84
2022-12-27T19:32:10.052Z,101354.92
2022-12-27T19:34:46.022Z,101355.06
2022-12-27T19:37:14.460Z,101354.63
2022-12-27T19:39:45.514Z,101358.68
2022-12-27T19:42:21.763Z,101359.70
2022-12-27T19:44:49.678Z,101362.11
2022-12-27T19:47:17.949Z,101362.40
2022-12-27T19:49:45.934Z,101366.19
2022-12-27T19:52:21.758Z,101369.27
2022-12-27T19:54:52.232Z,101371.19
2022-12-27T19:57:22.107Z,101370.70
2022-12-27T19:59:49.959Z,101373.95
2022-12-27T20:02:18.545Z,101374.27
2022-12-27T20:04:46.612Z,101377.48
2022-12-27T20:07:22.693Z,101375.50
2022-12-27T20:09:50.905Z,101379.14
2022-12-27T20:12:19.549Z,101384.13
2022-12-27T20:14:48.059Z,101382.48
2022-12-27T20:17:16.176Z,101382.11
2022-12-27T20:19:44.146Z,101381.06
2022-12-27T20:22:12.347Z,101379.15
2022-12-27T20:24:40.239Z,101374.52
2022-12-27T20:27:08.066Z,101378.27
2022-12-27T20:29:36.013Z,101380.61
2022-12-27T20:32:04.182Z,101384.46
2022-12-27T20:34:32.148Z,101387.00
2022-12-27T20:37:00.679Z,101390.77
2022-12-27T20:39:28.606Z,101396.45
2022-12-27T20:41:56.560Z,101398.66
2022-12-27T20:44:24.482Z,101402.87
2022-12-27T20:46:52.306Z,101405.05
2022-12-27T20:49:20.147Z,101406.25
2022-12-27T20:51:48.122Z,101404.85
2022-12-27T20:54:16.881Z,101407.27
2022-12-27T20:56:44.845Z,101405.94
2022-12-27T20:59:12.720Z,101408.66
2022-12-27T21:01:40.898Z,101409.31
2022-12-27T21:04:09.577Z,101406.98
2022-12-27T21:06:37.789Z,101406.08
2022-12-27T21:09:08.274Z,101405.89
2022-12-27T21:11:36.498Z,101404.98
2022-12-27T21:14:05.537Z,101401.96
2022-12-27T21:16:35.332Z,101401.33
2022-12-27T21:19:04.908Z,101400.66
2022-12-27T21:21:36.394Z,101404.42
2022-12-27T21:24:07.981Z,101402.12
2022-12-27T21:26:39.003Z,101407.84
2022-12-27T21:29:09.724Z,101403.38
2022-12-27T21:31:38.121Z,101409.92
2022-12-27T21:34:08.731Z,101413.49
2022-12-27T21:36:41.392Z,101413.86
2022-12-27T21:39:09.488Z,101405.30
2022-12-27T21:41:40.172Z,101406.38
2022-12-27T21:44:08.203Z,101406.10
2022-12-27T21:46:41.934Z,101405.15
2022-12-27T21:49:13.479Z,101402.21
2022-12-27T21:51:43.214Z,101399.54
2022-12-27T21:54:13.517Z,101396.18
2022-12-27T21:56:41.552Z,101396.95
2022-12-27T21:59:12.345Z,101397.77
2022-12-27T22:01:50.193Z,101392.27
2022-12-27T22:04:21.336Z,101393.46
2022-12-27T22:06:50.055Z,101395.70
2022-12-27T22:09:19.243Z,101392.87
2022-12-27T22:11:48.023Z,101399.23
2022-12-27T22:14:18.735Z,101398.33
2022-12-27T22:16:49.812Z,101395.25
2022-12-27T22:19:17.776Z,101391.70
2022-12-27T22:21:45.782Z,101394.55
2022-12-27T22:24:19.214Z,101394.65
2022-12-27T22:26:48.576Z,101393.52
2022-12-27T22:29:17.749Z,101391.15
2022-12-27T22:31:46.610Z,101392.23
2022-12-27T22:34:14.837Z,101394.84
2022-12-27T22:36:42.776Z,101394.90
2022-12-27T22:39:10.776Z,101393.70
2022-12-27T22:41:38.732Z,101389.80
2022-12-27T22:44:15.115Z,101381.05
2022-12-27T22:47:25.064Z,101376.51
2022-12-27T22:49:31.251Z,101378.04
2022-12-27T22:51:59.094Z,101373.36
2022-12-27T22:55:04.174Z,101372.92
2022-12-27T22:57:14.878Z,101375.09
2022-12-27T22:59:43.386Z,101379.79
2022-12-27T23:02:11.327Z,101380.89
2022-12-27T23:04:39.324Z,101381.73
2022-12-27T23:07:07.224Z,101379.06
2022-12-27T23:09:39.297Z,101368.13
2022-12-27T23:12:12.674Z,101369.80
2022-12-27T23:14:40.831Z,101373.66
2022-12-27T23:17:08.909Z,101368.98
2022-12-27T23:19:36.810Z,101371.34
2022-12-27T23:22:04.803Z,101367.86
2022-12-27T23:24:33.405Z,101368.39
2022-12-27T23:27:01.505Z,101365.14
2022-12-27T23:29:29.430Z,101359.17
2022-12-27T23:31:57.412Z,101359.25
2022-12-27T23:34:28.759Z,101352.77
2022-12-27T23:36:59.156Z,101354.92
2022-12-27T23:39:28.047Z,101354.89
2022-12-27T23:41:56.293Z,101352.70
2022-12-27T23:44:33.333Z,101349.51
2022-12-27T23:47:06.513Z,101341.29
2022-12-27T23:49:34.704Z,101342.14
2022-12-27T23:52:03.557Z,101341.30
2022-12-27T23:54:31.547Z,101335.04
2022-12-27T23:57:19.868Z,101327.94
2022-12-27T23:59:47.440Z,101330.67
